Latest Weather Observations for Rutherglen RS

IDV60801

Issued at 7:35 pm EST Friday 1 August 2014 (issued every 30 minutes, with the page automatically refreshed every 10 minutes)

About weather observations | Map of weather stations | Latest weather observations for VIC | Other Formats
Station Details ID: 082039 Name: RUTHERGLEN RESEARCH Lat: -36.10 Lon: 146.51 Height: 175.0 m
Data from the previous 72 hours. | See also: Recent months at Rutherglen RS
Date/Time
EST
Temp
°C
App
Temp
°C
Dew
Point
Rel
Hum
%
Delta-T
°C
Wind Press
QNH
hPa
Press
MSL
hPa
Rain
since 9 am
mm
Dir
 
Spd
km/h
Gust
km/h
Spd
kts
Gust
kts
01/07:30pm 4.8 -0.6 4.4 97 0.2 WSW 22 30 12 16 - - 1.4
01/07:00pm 5.0 -0.4 4.3 95 0.3 WSW 22 30 12 16 - - 1.4
01/06:30pm 5.3 0.2 4.1 92 0.5 W 20 26 11 14 - - 1.4
01/06:00pm 6.2 1.1 4.0 86 0.9 WSW 20 28 11 15 - - 1.4
01/05:30pm 6.7 1.4 5.2 90 0.7 W 22 32 12 17 - - 1.4
01/05:00pm 7.0 1.6 6.3 95 0.3 W 24 32 13 17 - - 1.4
01/04:30pm 7.6 2.7 6.7 94 0.4 W 22 32 12 17 - - 1.4
01/04:00pm 7.4 1.3 6.8 96 0.3 W 28 37 15 20 - - 1.4
01/03:30pm 7.4 2.3 6.0 91 0.6 W 22 33 12 18 - - 1.4
01/03:00pm 7.4 2.6 5.7 89 0.8 W 20 30 11 16 - - 1.4
01/02:30pm 7.3 2.9 7.2 99 0.0 W 20 30 11 16 - - 1.4
01/02:00pm 6.5 2.1 6.4 99 0.0 W 19 26 10 14 - - 1.0
01/01:38pm 5.8 -0.5 5.7 99 0.0 W 28 48 15 26 - - 1.0
01/01:30pm 7.0 3.0 6.6 97 0.2 SW 17 22 9 12 - - 0.8
01/01:00pm 8.5 3.9 6.6 88 0.9 WNW 20 28 11 15 - - 0.6
01/12:30pm 6.7 3.4 6.3 97 0.2 WNW 13 19 7 10 - - 0.6
01/12:00pm 6.7 2.5 5.8 94 0.4 NW 17 22 9 12 - - 0.6
01/11:30am 6.4 2.3 6.3 99 0.0 WNW 17 24 9 13 - - 0.6
01/11:00am 6.0 1.9 6.0 100 0.0 WNW 17 30 9 16 - - 0.6
01/10:30am 5.9 2.9 5.8 99 0.0 NNW 11 19 6 10 - - 0.2
01/10:00am 5.6 2.1 5.5 99 0.0 NNW 13 20 7 11 - - 0.2
01/09:30am 5.4 2.2 5.3 99 0.0 NNW 11 17 6 9 - - 0.2
01/09:00am 4.8 1.5 4.8 100 0.0 NNW 11 17 6 9 - - 0.6
01/08:30am 4.4 1.8 4.4 100 0.0 N 7 13 4 7 - - 0.6
01/08:00am 4.3 1.3 4.3 100 0.0 N 9 17 5 9 - - 0.6
01/07:30am 4.3 1.9 4.3 100 0.0 NNW 6 9 3 5 - - 0.6
01/07:00am 3.9 1.8 3.9 100 0.0 N 4 7 2 4 - - 0.6
01/06:30am 3.4 0.8 3.4 100 0.0 NW 6 7 3 4 - - 0.6
01/06:00am 3.0 1.5 3.0 100 0.0 NNW 0 6 0 3 - - 0.6
01/05:30am 3.3 0.5 3.3 100 0.0 NW 7 11 4 6 - - 0.6
01/05:00am 2.6 -0.1 2.6 100 0.0 NW 6 11 3 6 - - 0.6
01/04:30am 3.1 0.5 3.1 100 0.0 N 6 7 3 4 - - 0.6
01/04:00am 3.2 1.3 3.1 99 0.0 W 2 9 1 5 - - 0.6
01/03:30am 4.9 1.6 4.8 99 0.0 WNW 11 17 6 9 - - 0.6
01/03:00am 5.3 1.7 4.9 97 0.2 WNW 13 19 7 10 - - 0.6
01/02:30am 5.7 2.2 5.6 99 0.0 WNW 13 19 7 10 - - 0.6
01/02:00am 6.3 3.7 6.2 99 0.0 WNW 9 15 5 8 - - 0.6
01/01:30am 6.5 4.0 6.5 100 0.0 WNW 9 15 5 8 - - 0.6
01/01:00am 6.6 2.2 6.6 100 0.0 W 19 30 10 16 - - 0.6
01/12:30am 6.9 2.4 6.9 100 0.0 W 20 28 11 15 - - 0.6
01/12:00am 6.9 2.4 6.9 100 0.0 W 20 28 11 15 - - 0.4
 
Date/Time
EST
Temp
°C
App
Temp
°C
Dew
Point
Rel
Hum
%
Delta-T
°C
Wind Press
QNH
hPa
Press
MSL
hPa
Rain
since 9 am
mm
Dir
 
Spd
km/h
Gust
km/h
Spd
kts
Gust
kts
31/11:30pm 7.0 1.7 6.9 99 0.0 W 24 37 13 20 - - 0.0
31/11:18pm 7.5 1.4 6.8 95 0.3 W 28 46 15 25 - - 0.0
31/11:00pm 8.2 2.9 6.7 90 0.7 W 24 35 13 19 - - 0.0
31/10:30pm 9.2 4.2 6.6 84 1.2 W 22 32 12 17 - - 0.0
31/10:00pm 9.6 5.0 6.5 81 1.5 W 20 26 11 14 - - 0.0
31/09:30pm 10.3 4.2 6.6 78 1.8 WSW 28 46 15 25 - - 0.0
31/09:28pm 10.5 4.4 6.6 77 1.8 WSW 28 46 15 25 - - 0.0
31/09:00pm 11.0 6.0 8.2 83 1.4 W 24 32 13 17 - - 0.0
31/08:32pm 12.3 5.9 8.6 78 1.9 W 32 50 17 27 - - 0.0
31/08:30pm 12.4 5.8 8.5 77 2.0 W 33 50 18 27 - - 0.0
31/08:23pm 13.7 5.3 7.2 65 3.2 W 41 50 22 27 - - 0.0
31/08:00pm 14.3 10.8 5.4 55 4.2 NNW 13 20 7 11 - - 0.0
31/07:30pm 14.3 10.8 5.4 55 4.2 N 13 17 7 9 - - 0.0
31/07:00pm 14.0 10.9 5.4 56 4.1 N 11 19 6 10 - - 0.0
31/06:30pm 13.3 10.6 5.5 59 3.7 N 9 13 5 7 - - 0.0
31/06:00pm 15.1 12.0 5.6 53 4.6 N 11 17 6 9 - - 0.0
31/05:30pm 16.3 12.8 5.6 49 5.2 N 13 20 7 11 - - 0.0
31/05:00pm 17.3 14.0 6.2 48 5.5 NNW 13 24 7 13 - - 0.0
31/04:30pm 18.5 14.6 7.0 47 5.8 NNW 17 26 9 14 - - 0.0
31/04:00pm 19.0 14.5 6.8 45 6.2 NNW 20 35 11 19 - - 0.0
31/03:30pm 19.1 14.3 7.2 46 6.1 NNW 22 37 12 20 - - 0.0
31/03:00pm 19.0 13.7 6.8 45 6.2 NNW 24 41 13 22 - - 0.0
31/02:45pm 19.0 12.8 6.1 43 6.4 NNW 28 50 15 27 - - 0.0
31/02:30pm 19.0 13.8 7.4 47 5.9 NNW 24 41 13 22 - - 0.0
31/02:00pm 18.7 13.8 8.4 51 5.4 NNW 24 48 13 26 - - 0.0
31/01:30pm 18.1 13.3 8.9 55 4.8 N 24 39 13 21 - - 0.0
31/01:00pm 17.8 13.8 9.2 57 4.5 N 20 37 11 20 - - 0.0
31/12:30pm 17.3 13.1 9.7 61 4.0 NNW 22 33 12 18 - - 0.0
31/12:00pm 16.5 13.1 10.4 67 3.3 N 19 32 10 17 - - 0.0
31/11:30am 15.6 12.8 11.4 76 2.3 N 17 24 9 13 - - 0.0
31/11:00am 14.5 11.3 10.1 75 2.3 N 17 30 9 16 - - 0.0
31/10:30am 13.2 9.9 9.5 78 1.9 N 17 24 9 13 - - 0.0
31/10:00am 12.0 9.2 8.7 80 1.7 NNE 13 22 7 12 - - 0.0
31/09:30am 11.1 8.6 8.3 83 1.4 NNE 11 19 6 10 - - 0.0
31/09:00am 10.3 8.0 7.5 83 1.4 NNE 9 15 5 8 - - 0.4
31/08:30am 9.3 6.9 7.1 86 1.0 NNE 9 17 5 9 - - 0.4
31/08:00am 8.5 6.2 7.3 92 0.6 NE 9 13 5 7 - - 0.4
31/07:30am 7.8 5.1 7.4 97 0.2 NNE 11 17 6 9 - - 0.4
31/07:00am 7.9 5.3 7.8 99 0.0 NNE 11 17 6 9 - - 0.4
31/06:30am 7.6 5.3 7.6 100 0.0 NNE 9 15 5 8 - - 0.4
31/06:00am 8.1 6.0 8.1 100 0.0 NE 9 11 5 6 - - 0.4
31/05:30am 9.3 7.5 9.3 100 0.0 NNE 9 13 5 7 - - 0.4
31/05:00am 9.5 8.1 9.5 100 0.0 NNE 7 9 4 5 - - 0.4
31/04:30am 10.1 8.8 10.1 100 0.0 N 7 9 4 5 - - 0.4
31/04:00am 10.2 9.0 10.2 100 0.0 NNE 7 9 4 5 - - 0.4
31/03:30am 10.1 9.0 10.1 100 0.0 N 6 7 3 4 - - 0.4
31/03:00am 10.6 10.1 10.6 100 0.0 N 4 7 2 4 - - 0.4
31/02:30am 10.4 8.9 10.4 100 0.0 NNE 9 13 5 7 - - 0.4
31/02:00am 10.3 8.7 10.3 100 0.0 NNE 9 13 5 7 - - 0.4
31/01:30am 10.0 8.9 10.0 100 0.0 NNE 6 9 3 5 - - 0.4
31/01:00am 9.4 8.0 9.4 100 0.0 NE 7 11 4 6 - - 0.4
31/12:30am 7.1 5.3 7.1 100 0.0 E 6 9 3 5 - - 0.4
31/12:00am 6.9 5.0 6.9 100 0.0 ENE 6 7 3 4 - - 0.4
 
Date/Time
EST
Temp
°C
App
Temp
°C
Dew
Point
Rel
Hum
%
Delta-T
°C
Wind Press
QNH
hPa
Press
MSL
hPa
Rain
since 9 am
mm
Dir
 
Spd
km/h
Gust
km/h
Spd
kts
Gust
kts
30/11:30pm 7.4 6.0 7.4 100 0.0 NNE 4 7 2 4 - - 0.4
30/11:00pm 7.3 5.5 7.3 100 0.0 NNE 6 7 3 4 - - 0.4
30/10:30pm 9.5 9.4 9.5 100 0.0 CALM 0 0 0 0 - - 0.4
30/10:00pm 12.0 11.3 11.5 97 0.3 N 6 9 3 5 - - 0.4
30/09:30pm 12.0 10.4 11.7 98 0.2 N 11 15 6 8 - - 0.4
30/09:00pm 12.3 11.6 12.1 99 0.1 N 7 11 4 6 - - 0.4
30/08:30pm 12.9 11.9 12.3 96 0.3 N 9 13 5 7 - - 0.4
30/08:00pm 13.0 12.3 12.1 94 0.5 N 7 13 4 7 - - 0.4
30/07:30pm 13.1 12.5 12.3 95 0.4 N 7 9 4 5 - - 0.4
30/07:00pm 13.5 13.0 12.7 95 0.4 N 7 11 4 6 - - 0.4
30/06:30pm 13.5 13.1 12.9 96 0.3 N 7 9 4 5 - - 0.4
30/06:00pm 14.3 13.8 12.7 90 0.9 N 7 11 4 6 - - 0.4
30/05:30pm 14.5 14.2 12.7 89 1.0 N 6 9 3 5 - - 0.4
30/05:00pm 14.7 14.3 12.9 89 1.0 NW 7 9 4 5 - - 0.4
30/04:30pm 15.0 13.8 12.9 87 1.2 NW 11 22 6 12 - - 0.4
30/04:00pm 15.3 13.6 12.6 84 1.5 NW 13 20 7 11 - - 0.4
30/03:30pm 15.1 13.2 13.1 88 1.1 NW 15 22 8 12 - - 0.4
30/03:00pm 14.9 12.9 12.8 87 1.2 WNW 15 24 8 13 - - 0.4
30/02:30pm 14.8 13.1 13.7 93 0.6 WNW 15 22 8 12 - - 0.4
30/02:00pm 14.0 12.4 14.0 100 0.0 WNW 15 24 8 13 - - 0.4
30/01:30pm 14.5 12.4 13.5 94 0.6 NW 17 24 9 13 - - 0.4
30/01:00pm 14.4 12.2 13.3 93 0.6 WNW 17 28 9 15 - - 0.4
30/12:30pm 14.2 12.2 12.6 90 0.9 WNW 15 22 8 12 - - 0.0
30/12:00pm 14.4 11.7 13.0 91 0.8 WNW 19 28 10 15 - - 0.0
30/11:30am 14.1 10.9 13.0 93 0.6 W 22 33 12 18 - - 0.0
30/11:00am 14.3 11.1 13.0 92 0.7 WNW 22 32 12 17 - - 0.0
30/10:30am 13.8 10.8 12.7 93 0.6 WNW 20 33 11 18 - - 0.0
30/10:00am 13.3 10.6 12.8 97 0.3 WNW 19 30 10 16 - - 0.0
30/09:30am 12.9 11.3 12.7 99 0.1 WNW 13 20 7 11 - - 0.0
30/09:00am 12.3 10.6 12.3 100 0.0 WNW 13 24 7 13 - - -
30/08:30am 11.9 10.0 11.9 100 0.0 WNW 13 20 7 11 - - -
30/08:00am 11.8 9.5 11.8 100 0.0 NW 15 22 8 12 - - -
30/07:30am 12.0 10.2 12.0 100 0.0 NW 13 19 7 10 - - -
30/07:00am 12.1 10.3 12.1 100 0.0 NW 13 20 7 11 - - -
30/06:30am 12.0 10.2 12.0 100 0.0 WNW 13 20 7 11 - - -
30/06:00am 11.7 10.1 11.7 100 0.0 WNW 11 19 6 10 - - -
30/05:30am 11.0 9.2 11.0 100 0.0 WNW 11 17 6 9 - - -
30/05:00am 10.8 9.0 10.8 100 0.0 WNW 11 19 6 10 - - -
30/04:30am 11.4 9.4 11.4 100 0.0 NW 13 17 7 9 - - -
30/04:00am 11.9 9.2 11.6 98 0.2 W 17 24 9 13 - - -
30/03:30am 12.8 9.7 11.5 92 0.7 WNW 19 28 10 15 - - -
30/03:00am 12.8 10.0 11.2 90 0.8 WNW 17 26 9 14 - - 0.0
30/02:30am 13.0 10.5 11.2 89 1.0 WNW 15 20 8 11 - - -
30/02:00am 12.2 10.8 10.9 92 0.7 NW 9 17 5 9 - - -
30/01:30am 12.1 11.0 10.7 91 0.7 N 7 9 4 5 - - -
30/01:00am 12.4 11.0 10.8 90 0.8 NW 9 17 5 9 - - -
30/12:30am 12.1 10.6 10.5 90 0.8 NW 9 13 5 7 - - -
30/12:00am 12.1 10.9 10.3 89 0.9 NNW 7 11 4 6 - - -
 
Date/Time
EST
Temp
°C
App
Temp
°C
Dew
Point
Rel
Hum
%
Delta-T
°C
Wind Press
QNH
hPa
Press
MSL
hPa
Rain
since 9 am
mm
Dir
 
Spd
km/h
Gust
km/h
Spd
kts
Gust
kts
29/11:30pm 13.1 11.2 10.6 85 1.3 NW 11 17 6 9 - - -
29/11:00pm 13.2 10.9 10.6 84 1.4 NW 13 17 7 9 - - -
29/10:30pm 13.3 11.0 10.3 82 1.6 NW 13 19 7 10 - - -
29/10:00pm 13.3 11.3 10.1 81 1.7 WNW 11 17 6 9 - - -
29/09:30pm 13.6 11.6 10.2 80 1.8 WNW 11 17 6 9 - - -
29/09:00pm 14.0 10.7 9.6 75 2.3 WNW 17 26 9 14 - - 0.0
29/08:30pm 13.8 11.5 9.0 73 2.5 WNW 11 20 6 11 - - -
29/08:00pm 13.5 11.5 8.8 73 2.4 NW 9 17 5 9 - - -

Other Formats:

Comma delimited format used in spreadsheet applications
http://www.bom.gov.au/fwo/IDV60801/IDV60801.95837.axf

JavaScript Object Notation format (JSON) in row-major order
http://www.bom.gov.au/fwo/IDV60801/IDV60801.95837.json